KFAR/FAR METAR and TAF weather

Enter ICAO airport designator
Station Type Date Time Source
KFAR METAR 2022/05/25 00:53 UTC NOAA

KFAR 250053Z 15005KT 10SM OVC110 18/02 A3010 RMK AO2 SLP194 T01830022


Station Type Date Time Source
KFAR Decoded METAR 2022/05/25 00:53 UTC NOAA

HECTOR INTERNATIONAL AIRPORT , ND, United States (KFAR) 46-56N 096-49W 277M
May 24, 2022 - 08:53 PM EDT / 2022.05.25 0053 UTC
Wind: from the SSE (150 degrees) at 6 MPH (5 KT):0
Visibility: 10 mile(s):0
Sky conditions: overcast
Temperature: 64.9 F (18.3 C)
Dew Point: 36.0 F (2.2 C)
Relative Humidity: 34%
Pressure (altimeter): 30.1 in. Hg (1019 hPa)
ob: KFAR 250053Z 15005KT 10SM OVC110 18/02 A3010 RMK AO2 SLP194 T01830022
cycle: 1

Station Type Date Time Source
KFAR TAF 2022/05/24 18:42 UTC NOAA

TAF KFAR 241740Z 2418/2518 20013G20KT P6SM SCT070
FM242000 19010KT P6SM SCT090
FM250200 VRB05KT P6SM BKN200
FM251600 14010KT P6SM SCT035 BKN150

Example: see airport list